createdAt,value
2019-02-16T00:01:19.231Z,8.79
2019-02-16T00:03:51.026Z,8.67
2019-02-16T00:06:23.604Z,8.75
2019-02-16T00:08:55.763Z,8.79
2019-02-16T00:11:27.369Z,8.79
2019-02-16T00:13:59.336Z,8.73
2019-02-16T00:16:31.271Z,8.68
2019-02-16T00:19:03.333Z,8.73
2019-02-16T00:21:35.431Z,8.76
2019-02-16T00:24:06.929Z,8.73
2019-02-16T00:26:38.691Z,8.72
2019-02-16T00:29:10.681Z,8.77
2019-02-16T00:31:42.185Z,8.70
2019-02-16T00:34:14.056Z,8.79
2019-02-16T00:36:47.012Z,8.75
2019-02-16T00:39:18.385Z,8.81
2019-02-16T00:41:51.515Z,8.78
2019-02-16T00:44:23.766Z,8.79
2019-02-16T00:46:55.066Z,8.90
2019-02-16T00:49:27.436Z,8.84
2019-02-16T00:51:59.161Z,8.84
2019-02-16T00:54:30.468Z,8.90
2019-02-16T00:57:03.278Z,8.92
2019-02-16T00:59:35.480Z,8.89
2019-02-16T01:02:07.170Z,8.97
2019-02-16T01:04:39.205Z,8.93
2019-02-16T01:07:10.531Z,8.99
2019-02-16T01:09:41.939Z,9.02
2019-02-16T01:12:15.120Z,8.94
2019-02-16T01:14:47.142Z,8.89
2019-02-16T01:17:19.371Z,8.89
2019-02-16T01:19:51.972Z,8.89
2019-02-16T01:22:23.794Z,8.88
2019-02-16T01:24:55.018Z,8.82
2019-02-16T01:27:27.126Z,8.81
2019-02-16T01:29:58.806Z,8.84
2019-02-16T01:32:30.421Z,8.88
2019-02-16T01:35:01.618Z,8.79
2019-02-16T01:37:33.898Z,8.82
2019-02-16T01:40:06.624Z,8.76
2019-02-16T01:42:38.305Z,8.77
2019-02-16T01:45:11.311Z,8.76
2019-02-16T01:47:42.556Z,8.70
2019-02-16T01:50:14.186Z,8.65
2019-02-16T01:52:45.549Z,8.66
2019-02-16T01:55:18.920Z,8.55
2019-02-16T01:57:50.298Z,8.57
2019-02-16T02:00:21.968Z,8.52
2019-02-16T02:02:54.490Z,8.45
2019-02-16T02:05:26.204Z,8.48
2019-02-16T02:07:58.054Z,8.41
2019-02-16T02:10:29.800Z,8.33
2019-02-16T02:13:01.549Z,8.39
2019-02-16T02:15:32.892Z,8.32
2019-02-16T02:18:04.702Z,8.22
2019-02-16T02:20:37.009Z,8.24
2019-02-16T02:23:08.841Z,8.17
2019-02-16T02:25:40.565Z,8.18
2019-02-16T02:28:12.165Z,8.22
2019-02-16T02:30:44.112Z,8.12
2019-02-16T02:33:17.234Z,8.06
2019-02-16T02:35:48.536Z,8.03
2019-02-16T02:38:19.751Z,8.10
2019-02-16T02:40:51.439Z,8.07
2019-02-16T02:43:23.429Z,7.97
2019-02-16T02:45:55.560Z,7.95
2019-02-16T02:48:27.698Z,8.02
2019-02-16T02:50:58.957Z,7.91
2019-02-16T02:53:31.699Z,7.79
2019-02-16T02:56:04.439Z,7.84
2019-02-16T02:58:35.725Z,7.89
2019-02-16T03:01:07.866Z,7.85
2019-02-16T03:03:42.482Z,7.85
2019-02-16T03:06:14.696Z,7.90
2019-02-16T03:08:45.949Z,7.81
2019-02-16T03:11:17.702Z,7.86
2019-02-16T03:13:50.169Z,7.79
2019-02-16T03:16:21.411Z,7.84
2019-02-16T03:18:53.482Z,7.76
2019-02-16T03:21:25.616Z,7.74
2019-02-16T03:23:57.345Z,7.85
2019-02-16T03:26:47.481Z,7.81
2019-02-16T03:29:34.038Z,7.72
2019-02-16T03:32:47.495Z,7.65
2019-02-16T03:35:51.223Z,7.69
2019-02-16T03:39:09.190Z,7.67
2019-02-16T03:41:41.224Z,7.67
2019-02-16T03:44:12.506Z,7.59
2019-02-16T03:46:44.807Z,7.63
2019-02-16T03:49:16.576Z,7.59
2019-02-16T03:51:47.811Z,7.52
2019-02-16T03:57:10.433Z,7.49
2019-02-16T03:59:42.268Z,7.44
2019-02-16T04:02:15.268Z,7.50
2019-02-16T04:04:47.301Z,7.50
2019-02-16T04:07:19.437Z,7.53
2019-02-16T04:09:51.394Z,7.47
2019-02-16T04:12:23.275Z,7.50
2019-02-16T04:14:55.168Z,7.46
2019-02-16T04:17:26.872Z,7.41
2019-02-16T04:19:58.575Z,7.40
2019-02-16T04:22:30.628Z,7.34
2019-02-16T04:25:02.519Z,7.37
2019-02-16T04:30:23.981Z,7.32
2019-02-16T04:32:55.196Z,7.26
2019-02-16T04:35:27.690Z,7.16
2019-02-16T04:37:59.759Z,7.19
2019-02-16T04:40:31.583Z,7.21
2019-02-16T04:43:02.928Z,7.10
2019-02-16T04:45:34.622Z,7.15
2019-02-16T04:48:05.941Z,6.99
2019-02-16T04:50:37.543Z,7.02
2019-02-16T04:53:09.366Z,6.97
2019-02-16T04:55:41.167Z,6.91
2019-02-16T04:58:12.751Z,6.98
2019-02-16T05:00:44.805Z,6.98
2019-02-16T05:03:16.540Z,6.97
2019-02-16T05:05:47.736Z,6.84
2019-02-16T05:08:20.326Z,6.88
2019-02-16T05:10:52.481Z,6.89
2019-02-16T05:13:24.250Z,6.81
2019-02-16T05:15:55.582Z,6.81
2019-02-16T05:18:27.478Z,7.03
2019-02-16T05:20:59.212Z,6.87
2019-02-16T05:23:31.864Z,6.82
2019-02-16T05:26:27.157Z,6.83
2019-02-16T05:29:03.659Z,6.78
2019-02-16T05:31:35.817Z,6.79
2019-02-16T05:34:07.414Z,6.77
2019-02-16T05:36:40.977Z,6.71
2019-02-16T05:39:12.540Z,6.75
2019-02-16T05:41:44.076Z,6.75
2019-02-16T05:44:16.061Z,6.77
2019-02-16T05:46:47.420Z,6.84
2019-02-16T05:49:19.183Z,6.70
2019-02-16T05:51:50.911Z,6.70
2019-02-16T05:54:22.761Z,6.66
2019-02-16T05:56:54.104Z,6.64
2019-02-16T05:59:26.071Z,6.71
2019-02-16T06:01:58.042Z,6.76
2019-02-16T06:04:29.932Z,6.87
2019-02-16T06:07:01.353Z,6.74
2019-02-16T06:09:33.647Z,6.75
2019-02-16T06:12:05.482Z,6.65
2019-02-16T06:14:37.332Z,6.71
2019-02-16T06:17:09.255Z,6.74
2019-02-16T06:19:41.386Z,6.75
2019-02-16T06:22:13.089Z,6.73
2019-02-16T06:24:45.208Z,6.76
2019-02-16T06:27:16.853Z,6.83
2019-02-16T06:29:48.571Z,6.81
2019-02-16T06:32:20.626Z,6.86
2019-02-16T06:34:57.076Z,6.72
2019-02-16T06:37:29.052Z,6.62
2019-02-16T06:40:01.662Z,6.65
2019-02-16T06:42:33.309Z,6.72
2019-02-16T06:45:05.167Z,6.79
2019-02-16T06:47:36.444Z,6.80
2019-02-16T06:50:08.931Z,6.73
2019-02-16T06:52:40.473Z,6.75
2019-02-16T06:55:12.643Z,6.62
2019-02-16T06:57:48.373Z,6.59
2019-02-16T07:00:22.246Z,6.54
2019-02-16T07:02:54.030Z,6.58
2019-02-16T07:05:26.090Z,6.59
2019-02-16T07:07:58.493Z,6.63
2019-02-16T07:10:30.252Z,6.53
2019-02-16T07:13:01.937Z,6.60
2019-02-16T07:15:33.212Z,6.54
2019-02-16T07:18:14.417Z,6.60
2019-02-16T07:20:45.785Z,6.73
2019-02-16T07:23:27.019Z,6.58
2019-02-16T07:26:17.833Z,6.80
2019-02-16T07:28:50.266Z,6.89
2019-02-16T07:31:23.513Z,7.28
2019-02-16T07:33:54.858Z,7.35
2019-02-16T07:36:26.191Z,7.37
2019-02-16T07:38:58.914Z,7.62
2019-02-16T07:41:31.684Z,7.53
2019-02-16T07:44:15.204Z,7.68
2019-02-16T07:46:54.365Z,7.36
2019-02-16T07:49:40.034Z,7.77
2019-02-16T07:52:39.164Z,7.84
2019-02-16T07:55:20.755Z,7.61
2019-02-16T07:58:01.280Z,7.71
2019-02-16T08:00:49.935Z,8.07
2019-02-16T08:03:30.181Z,7.83
2019-02-16T08:06:23.847Z,8.11
2019-02-16T08:09:14.424Z,7.96
2019-02-16T08:11:55.923Z,8.09
2019-02-16T08:14:44.766Z,8.26
2019-02-16T08:17:19.607Z,8.30
2019-02-16T08:20:16.029Z,8.10
2019-02-16T08:23:05.931Z,8.09
2019-02-16T08:26:04.306Z,8.05
2019-02-16T08:29:02.254Z,7.99
2019-02-16T08:31:50.958Z,8.22
2019-02-16T08:34:37.957Z,8.26
2019-02-16T08:37:24.261Z,8.33
2019-02-16T08:40:22.643Z,8.42
2019-02-16T08:43:16.204Z,8.31
2019-02-16T08:46:07.643Z,8.32
2019-02-16T08:48:54.033Z,8.21
2019-02-16T08:51:37.288Z,8.32
2019-02-16T08:54:27.872Z,8.37
2019-02-16T08:57:34.404Z,8.19
2019-02-16T09:00:27.764Z,8.32
2019-02-16T09:03:16.996Z,8.24
2019-02-16T09:06:07.619Z,8.31
2019-02-16T09:08:48.340Z,8.49
2019-02-16T09:11:34.789Z,8.65
2019-02-16T09:14:20.787Z,8.74
2019-02-16T09:17:06.883Z,8.82
2019-02-16T09:19:59.829Z,8.79
2019-02-16T09:22:59.120Z,8.85
2019-02-16T09:25:45.660Z,8.91
2019-02-16T09:28:49.509Z,9.00
2019-02-16T09:31:40.349Z,9.08
2019-02-16T09:34:26.833Z,9.21
2019-02-16T09:40:20.210Z,9.27
2019-02-16T09:43:02.996Z,9.38
2019-02-16T09:45:56.191Z,9.29
2019-02-16T09:48:40.725Z,9.41
2019-02-16T09:51:38.282Z,9.43
2019-02-16T09:54:17.594Z,9.59
2019-02-16T09:57:00.015Z,9.62
2019-02-16T09:59:49.245Z,9.59
2019-02-16T10:02:35.838Z,9.45
2019-02-16T10:05:30.470Z,9.70
2019-02-16T10:08:33.610Z,9.65
2019-02-16T10:11:22.981Z,9.81
2019-02-16T10:14:14.554Z,9.75
2019-02-16T10:16:52.478Z,9.93
2019-02-16T10:19:44.168Z,9.93
2019-02-16T10:22:45.746Z,9.99
2019-02-16T10:25:35.338Z,10.13
2019-02-16T10:28:39.161Z,10.15
2019-02-16T10:31:30.167Z,10.31
2019-02-16T10:34:24.350Z,10.45
2019-02-16T10:37:21.510Z,10.47
2019-02-16T10:40:11.568Z,10.52
2019-02-16T10:43:04.447Z,10.61
2019-02-16T10:46:05.341Z,10.68
2019-02-16T10:48:47.812Z,10.76
2019-02-16T10:51:48.634Z,10.60
2019-02-16T10:54:33.142Z,10.65
2019-02-16T10:57:27.760Z,10.73
2019-02-16T11:00:31.570Z,10.74
2019-02-16T11:03:25.455Z,10.79
2019-02-16T11:06:09.027Z,10.87
2019-02-16T11:09:11.736Z,11.02
2019-02-16T11:12:02.014Z,11.05
2019-02-16T11:15:07.444Z,11.00
2019-02-16T11:18:12.462Z,11.06
2019-02-16T11:21:04.438Z,11.08
2019-02-16T11:23:58.258Z,11.25
2019-02-16T11:26:43.587Z,11.08
2019-02-16T11:29:31.293Z,11.01
2019-02-16T11:32:09.767Z,11.07
2019-02-16T11:35:00.778Z,11.05
2019-02-16T11:37:44.086Z,11.13
2019-02-16T11:40:46.468Z,11.29
2019-02-16T11:43:53.853Z,11.30
2019-02-16T11:46:44.549Z,11.31
2019-02-16T11:49:30.910Z,11.29
2019-02-16T11:52:26.819Z,11.43
2019-02-16T11:55:26.902Z,11.23
2019-02-16T11:58:37.404Z,11.45
2019-02-16T12:01:26.453Z,11.59
2019-02-16T12:04:09.041Z,11.67
2019-02-16T12:07:03.033Z,11.60
2019-02-16T12:09:50.814Z,11.65
2019-02-16T12:12:51.592Z,11.67
2019-02-16T12:15:40.882Z,11.85
2019-02-16T12:18:24.765Z,11.81
2019-02-16T12:21:13.940Z,11.82
2019-02-16T12:24:07.545Z,11.92
2019-02-16T12:27:02.336Z,11.78
2019-02-16T12:29:51.568Z,11.83
2019-02-16T12:32:42.036Z,11.84
2019-02-16T12:35:27.442Z,11.85
2019-02-16T12:38:14.259Z,11.90
2019-02-16T12:40:55.631Z,11.92
2019-02-16T12:43:50.395Z,11.98
2019-02-16T12:46:44.676Z,12.03
2019-02-16T12:49:33.407Z,12.04
2019-02-16T12:52:24.719Z,12.08
2019-02-16T12:55:15.990Z,12.04
2019-02-16T12:58:12.155Z,12.06
2019-02-16T13:01:05.910Z,12.17
2019-02-16T13:04:00.123Z,12.21
2019-02-16T13:07:06.282Z,12.21
2019-02-16T13:10:09.254Z,12.19
2019-02-16T13:13:05.560Z,12.23
2019-02-16T13:15:52.545Z,12.18
2019-02-16T13:18:36.632Z,12.19
2019-02-16T13:21:31.080Z,12.22
2019-02-16T13:24:26.541Z,12.21
2019-02-16T13:27:35.676Z,12.15
2019-02-16T13:30:27.529Z,12.23
2019-02-16T13:33:16.848Z,12.28
2019-02-16T13:36:02.356Z,12.26
2019-02-16T13:38:54.807Z,12.19
2019-02-16T13:42:08.546Z,12.15
2019-02-16T13:44:50.223Z,12.18
2019-02-16T13:47:47.439Z,12.05
2019-02-16T13:50:25.739Z,12.15
2019-02-16T13:53:25.750Z,12.15
2019-02-16T13:56:30.014Z,12.15
2019-02-16T13:59:27.194Z,12.13
2019-02-16T14:02:22.273Z,12.15
2019-02-16T14:05:28.328Z,12.11
2019-02-16T14:08:54.503Z,12.19
2019-02-16T14:11:47.884Z,12.21
2019-02-16T14:14:39.882Z,12.15
2019-02-16T14:17:22.971Z,12.14
2019-02-16T14:19:57.600Z,12.16
2019-02-16T14:25:55.082Z,12.11
2019-02-16T14:28:34.293Z,12.16
2019-02-16T14:31:09.982Z,12.28
2019-02-16T14:33:53.790Z,12.22
2019-02-16T14:36:27.089Z,12.29
2019-02-16T14:39:10.840Z,12.40
2019-02-16T14:41:45.305Z,12.34
2019-02-16T14:44:23.205Z,12.41
2019-02-16T14:46:56.077Z,12.38
2019-02-16T14:49:27.719Z,12.41
2019-02-16T14:52:00.503Z,12.33
2019-02-16T14:54:32.728Z,12.34
2019-02-16T14:57:08.825Z,12.28
2019-02-16T14:59:41.996Z,12.25
2019-02-16T15:02:21.774Z,12.27
2019-02-16T15:05:25.801Z,12.26
2019-02-16T15:12:10.293Z,12.23
2019-02-16T15:18:25.209Z,12.26
2019-02-16T15:30:59.710Z,11.84
2019-02-16T15:56:10.485Z,11.58
2019-02-16T16:05:39.249Z,11.54
2019-02-16T16:25:50.378Z,11.14
2019-02-16T16:35:10.404Z,11.02
2019-02-16T16:38:39.166Z,11.00
2019-02-16T16:41:34.972Z,11.00
2019-02-16T16:45:28.071Z,11.03
2019-02-16T16:52:24.287Z,10.90
2019-02-16T16:55:41.159Z,10.97
2019-02-16T16:59:15.060Z,10.99
2019-02-16T17:05:45.531Z,10.89
2019-02-16T17:52:06.953Z,10.62
2019-02-16T18:27:16.530Z,10.61
2019-02-16T19:05:30.059Z,10.56
2019-02-16T19:11:52.667Z,10.47
2019-02-16T19:22:46.250Z,10.41
2019-02-16T20:20:06.118Z,10.53
2019-02-16T20:41:17.859Z,10.49
2019-02-16T20:48:46.009Z,10.49
2019-02-16T20:54:56.424Z,10.53
2019-02-16T21:07:59.622Z,10.59
2019-02-16T21:11:34.801Z,10.65
2019-02-16T21:30:08.776Z,10.75
2019-02-16T21:37:17.807Z,10.76
2019-02-16T22:25:12.896Z,10.56
2019-02-16T22:28:47.617Z,10.48
2019-02-16T22:42:08.033Z,10.45
2019-02-16T22:53:31.445Z,10.28
2019-02-16T22:56:48.867Z,10.27
